Leaf, Mississippi
Current Conditions -  °F | °C
As of 5:38 PM on Thursday 18 Dec 2014 (Local Time) from KHBG Reporting Station
Overcast Overcast  
Wind Chill: 51°   Ceiling: 500
Heat Index: 51°   Visibility: 10mi
Dew Point: 49°   Wind: 3mph
Humidity: 92%   Direction: 20°NNE
Pressure: 30.16"   Gusts: NA
Location:  31.0532°N, 88.8084°W
Report Text: KHBG 182338Z AUTO 02003KT 10SM BKN005 BKN038 OVC046 11/09 A3016 RMK AO2 RAE2255B06E38 P0001 T01060094
Loading
Personal Weather Stations






























Interactive Weather Map New forecast layout! Learn more

10-Day Weather Forecast

Advertisements
Track Severe Weather on mobile